createdAt,value
2023-04-12T00:01:01.629Z,99184.78
2023-04-12T00:03:28.627Z,99180.97
2023-04-12T00:05:55.557Z,99169.63
2023-04-12T00:08:26.759Z,99159.16
2023-04-12T00:10:53.722Z,99164.91
2023-04-12T00:13:20.608Z,99179.34
2023-04-12T00:15:47.360Z,99192.75
2023-04-12T00:18:14.182Z,99232.91
2023-04-12T00:20:41.134Z,99280.53
2023-04-12T00:23:09.870Z,99261.16
2023-04-12T00:25:39.388Z,99258.78
2023-04-12T00:28:06.607Z,99257.94
2023-04-12T00:30:33.596Z,99245.09
2023-04-12T00:33:00.533Z,99221.88
2023-04-12T00:35:27.412Z,99183.31
2023-04-12T00:37:54.935Z,99150.78
2023-04-12T00:40:21.772Z,99129.41
2023-04-12T00:42:48.492Z,99126.22
2023-04-12T00:45:15.690Z,99105.00
2023-04-12T00:47:45.778Z,99112.31
2023-04-12T00:50:12.683Z,99119.38
2023-04-12T00:52:39.734Z,99115.34
2023-04-12T00:55:10.058Z,99106.94
2023-04-12T00:57:39.520Z,99089.81
2023-04-12T01:00:14.093Z,99081.47
2023-04-12T01:02:47.247Z,99077.50
2023-04-12T01:05:22.286Z,99078.66
2023-04-12T01:08:05.305Z,99063.53
2023-04-12T01:10:49.505Z,99060.34
2023-04-12T01:13:45.069Z,99034.72
2023-04-12T01:16:19.604Z,99022.72
2023-04-12T01:18:51.574Z,99011.28
2023-04-12T01:21:45.392Z,99004.06
2023-04-12T01:24:29.718Z,99000.31
2023-04-12T01:27:01.952Z,98993.03
2023-04-12T01:29:30.946Z,98994.81
2023-04-12T01:32:02.372Z,99001.19
2023-04-12T01:34:31.757Z,98980.13
2023-04-12T01:37:01.571Z,98971.94
2023-04-12T01:39:30.079Z,98959.63
2023-04-12T01:41:57.322Z,98952.44
2023-04-12T01:44:24.183Z,98931.59
2023-04-12T01:46:51.933Z,98920.09
2023-04-12T01:49:19.501Z,98908.59
2023-04-12T01:51:58.953Z,98893.09
2023-04-12T01:54:29.506Z,98899.31
2023-04-12T01:57:02.664Z,98900.41
2023-04-12T01:59:36.472Z,98874.72
2023-04-12T02:02:04.047Z,98883.22
2023-04-12T02:04:31.812Z,98876.50
2023-04-12T02:06:58.930Z,98879.56
2023-04-12T02:09:25.672Z,98854.38
2023-04-12T02:11:52.394Z,98873.88
2023-04-12T02:14:19.337Z,98853.19
2023-04-12T02:16:46.583Z,98823.84
2023-04-12T02:19:13.388Z,98809.63
2023-04-12T02:21:42.149Z,98812.13
2023-04-12T02:24:10.220Z,98819.63
2023-04-12T02:26:38.446Z,98815.09
2023-04-12T02:29:09.190Z,98794.47
2023-04-12T02:31:38.971Z,98772.06
2023-04-12T02:34:06.524Z,98760.78
2023-04-12T02:36:33.459Z,98757.19
2023-04-12T02:39:00.198Z,98731.75
2023-04-12T02:41:27.046Z,98723.16
2023-04-12T02:43:53.729Z,98719.66
2023-04-12T02:46:23.515Z,98724.84
2023-04-12T02:48:51.205Z,98707.81
2023-04-12T02:51:17.992Z,98710.81
2023-04-12T02:53:44.750Z,98684.56
2023-04-12T02:56:12.225Z,98674.03
2023-04-12T02:58:39.158Z,98632.44
2023-04-12T03:01:09.268Z,98625.25
2023-04-12T03:03:36.152Z,98615.63
2023-04-12T03:06:03.524Z,98599.00
2023-04-12T03:08:30.441Z,98607.41
2023-04-12T03:10:57.870Z,98589.94
2023-04-12T03:13:24.627Z,98575.88
2023-04-12T03:15:59.967Z,98554.16
2023-04-12T03:18:26.835Z,98540.06
2023-04-12T03:20:53.698Z,98523.53
2023-04-12T03:23:20.933Z,98507.06
2023-04-12T03:25:47.953Z,98483.03
2023-04-12T03:28:14.696Z,98467.59
2023-04-12T03:30:41.583Z,98449.47
2023-04-12T03:33:08.487Z,98436.53
2023-04-12T03:35:35.433Z,98407.06
2023-04-12T03:38:02.305Z,98377.53
2023-04-12T03:40:29.055Z,98360.25
2023-04-12T03:42:55.880Z,98353.94
2023-04-12T03:45:22.870Z,98344.22
2023-04-12T03:47:49.909Z,98338.59
2023-04-12T03:50:16.901Z,98310.97
2023-04-12T03:52:43.693Z,98288.59
2023-04-12T03:55:12.040Z,98268.78
2023-04-12T03:57:38.775Z,98248.94
2023-04-12T04:00:07.770Z,98223.66
2023-04-12T04:02:34.791Z,98193.31
2023-04-12T04:05:02.628Z,98187.22
2023-04-12T04:07:29.694Z,98170.72
2023-04-12T04:09:56.707Z,98157.56
2023-04-12T04:12:23.550Z,98126.69
2023-04-12T04:14:50.385Z,98118.50
2023-04-12T04:17:17.168Z,98115.72
2023-04-12T04:19:43.851Z,98113.38
2023-04-12T04:22:12.538Z,98107.16
2023-04-12T04:24:39.480Z,98084.56
2023-04-12T04:27:06.587Z,98073.03
2023-04-12T04:29:34.044Z,98070.69
2023-04-12T04:32:01.672Z,98062.06
2023-04-12T04:34:28.687Z,98050.72
2023-04-12T04:36:55.597Z,98028.09
2023-04-12T04:39:22.975Z,98026.28
2023-04-12T04:41:54.895Z,98011.78
2023-04-12T04:44:22.486Z,97987.19
2023-04-12T04:46:49.444Z,97972.81
2023-04-12T04:49:16.537Z,97970.84
2023-04-12T04:51:43.443Z,97974.56
2023-04-12T04:54:10.554Z,97962.81
2023-04-12T04:56:37.325Z,97946.06
2023-04-12T04:59:04.174Z,97935.34
2023-04-12T05:01:32.236Z,97913.06
2023-04-12T05:03:59.365Z,97889.72
2023-04-12T05:06:26.202Z,97885.31
2023-04-12T05:08:53.005Z,97856.38
2023-04-12T05:11:20.678Z,97850.50
2023-04-12T05:13:47.467Z,97839.94
2023-04-12T05:16:14.312Z,97829.38
2023-04-12T05:18:41.197Z,97821.97
2023-04-12T05:21:08.093Z,97811.09
2023-04-12T05:23:43.405Z,97799.94
2023-04-12T05:26:10.694Z,97807.16
2023-04-12T05:28:37.671Z,97803.63
2023-04-12T05:31:05.754Z,97798.84
2023-04-12T05:33:34.645Z,97806.47
2023-04-12T05:36:01.966Z,97794.38
2023-04-12T05:38:28.805Z,97804.47
2023-04-12T05:40:55.631Z,97803.53
2023-04-12T05:43:22.387Z,97783.63
2023-04-12T05:45:51.275Z,97793.41
2023-04-12T05:48:19.069Z,97782.06
2023-04-12T05:50:52.823Z,97786.53
2023-04-12T05:53:19.683Z,97779.88
2023-04-12T05:55:46.493Z,97780.03
2023-04-12T05:58:13.748Z,97773.34
2023-04-12T06:00:45.363Z,97766.91
2023-04-12T06:03:12.756Z,97781.47
2023-04-12T06:05:39.636Z,97769.63
2023-04-12T06:08:06.628Z,97775.44
2023-04-12T06:10:33.336Z,97772.56
2023-04-12T06:13:00.134Z,97779.59
2023-04-12T06:15:26.982Z,97776.47
2023-04-12T06:17:53.855Z,97772.66
2023-04-12T06:20:20.621Z,97782.66
2023-04-12T06:22:47.397Z,97771.31
2023-04-12T06:25:14.130Z,97790.06
2023-04-12T06:27:40.963Z,97796.91
2023-04-12T06:30:08.919Z,97805.41
2023-04-12T06:32:36.395Z,97813.81
2023-04-12T06:35:03.253Z,97833.16
2023-04-12T06:37:30.026Z,97838.69
2023-04-12T06:39:56.744Z,97845.81
2023-04-12T06:42:23.433Z,97875.38
2023-04-12T06:44:50.212Z,97892.84
2023-04-12T06:47:17.013Z,97917.59
2023-04-12T06:49:43.855Z,97949.19
2023-04-12T06:52:10.622Z,97973.75
2023-04-12T06:54:38.325Z,98005.94
2023-04-12T06:57:10.203Z,98027.31
2023-04-12T06:59:37.020Z,98037.25
2023-04-12T07:02:03.833Z,98050.34
2023-04-12T07:04:30.782Z,98079.94
2023-04-12T07:06:57.738Z,98083.94
2023-04-12T07:09:24.586Z,98108.00
2023-04-12T07:11:51.531Z,98109.63
2023-04-12T07:14:18.374Z,98142.84
2023-04-12T07:16:45.173Z,98145.88
2023-04-12T07:19:12.679Z,98156.72
2023-04-12T07:21:39.480Z,98177.69
2023-04-12T07:24:06.441Z,98174.63
2023-04-12T07:26:33.151Z,98186.28
2023-04-12T07:29:00.036Z,98203.44
2023-04-12T07:31:26.811Z,98225.91
2023-04-12T07:33:53.600Z,98235.31
2023-04-12T07:36:22.475Z,98247.41
2023-04-12T07:38:51.615Z,98263.38
2023-04-12T07:41:19.445Z,98274.31
2023-04-12T07:43:46.372Z,98278.69
2023-04-12T07:46:13.093Z,98289.97
2023-04-12T07:48:39.824Z,98300.22
2023-04-12T07:51:06.669Z,98309.22
2023-04-12T07:53:33.440Z,98312.13
2023-04-12T07:56:00.259Z,98315.97
2023-04-12T07:58:27.075Z,98316.13
2023-04-12T08:00:53.901Z,98320.56
2023-04-12T08:03:20.930Z,98328.28
2023-04-12T08:05:53.387Z,98335.22
2023-04-12T08:08:23.481Z,98332.44
2023-04-12T08:10:51.670Z,98348.69
2023-04-12T08:13:19.098Z,98346.16
2023-04-12T08:15:47.796Z,98358.41
2023-04-12T08:18:14.890Z,98348.94
2023-04-12T08:20:41.971Z,98358.41
2023-04-12T08:23:09.583Z,98365.81
2023-04-12T08:25:36.645Z,98362.41
2023-04-12T08:28:04.108Z,98372.41
2023-04-12T08:30:31.252Z,98362.69
2023-04-12T08:32:58.248Z,98365.31
2023-04-12T08:35:25.239Z,98374.59
2023-04-12T08:37:52.404Z,98375.44
2023-04-12T08:40:19.259Z,98368.25
2023-04-12T08:42:46.430Z,98381.84
2023-04-12T08:45:13.990Z,98384.03
2023-04-12T08:47:43.235Z,98391.06
2023-04-12T08:50:14.170Z,98390.81
2023-04-12T08:52:41.982Z,98393.63
2023-04-12T08:55:10.026Z,98397.16
2023-04-12T08:57:40.046Z,98403.91
2023-04-12T09:00:08.693Z,98405.94
2023-04-12T09:02:39.465Z,98405.28
2023-04-12T09:05:07.128Z,98416.84
2023-04-12T09:07:34.506Z,98407.50
2023-04-12T09:10:01.618Z,98418.66
2023-04-12T09:12:28.712Z,98420.03
2023-04-12T09:15:12.743Z,98426.78
2023-04-12T09:17:41.763Z,98437.53
2023-04-12T09:20:17.724Z,98433.94
2023-04-12T09:22:46.696Z,98437.78
2023-04-12T09:25:14.871Z,98445.75
2023-04-12T09:27:52.624Z,98458.34
2023-04-12T09:30:20.966Z,98479.81
2023-04-12T09:32:51.149Z,98474.72
2023-04-12T09:35:18.116Z,98455.41
2023-04-12T09:37:44.797Z,98477.34
2023-04-12T09:40:12.074Z,98479.50
2023-04-12T09:42:56.676Z,98477.75
2023-04-12T09:45:26.026Z,98476.94
2023-04-12T09:47:53.937Z,98476.94
2023-04-12T09:50:23.707Z,98486.75
2023-04-12T09:52:51.008Z,98484.53
2023-04-12T09:55:18.856Z,98489.22
2023-04-12T09:57:45.781Z,98489.94
2023-04-12T10:00:20.524Z,98495.53
2023-04-12T10:02:55.986Z,98489.25
2023-04-12T10:05:28.467Z,98494.63
2023-04-12T10:07:56.973Z,98506.88
2023-04-12T10:10:24.320Z,98504.69
2023-04-12T10:12:51.292Z,98510.38
2023-04-12T10:15:18.810Z,98525.78
2023-04-12T10:17:53.639Z,98517.69
2023-04-12T10:20:21.983Z,98515.56
2023-04-12T10:22:50.995Z,98538.56
2023-04-12T10:25:23.320Z,98535.28
2023-04-12T10:27:50.297Z,98536.69
2023-04-12T10:30:30.863Z,98559.88
2023-04-12T10:33:03.838Z,98581.06
2023-04-12T10:35:48.904Z,98584.50
2023-04-12T10:38:16.623Z,98580.53
2023-04-12T10:41:09.887Z,98600.19
2023-04-12T10:43:36.755Z,98601.78
2023-04-12T10:46:07.172Z,98595.59
2023-04-12T10:48:51.422Z,98608.28
2023-04-12T10:51:25.303Z,98620.81
2023-04-12T10:53:53.593Z,98618.41
2023-04-12T10:56:32.828Z,98632.50
2023-04-12T10:59:04.483Z,98640.66
2023-04-12T11:01:33.226Z,98636.78
2023-04-12T11:04:15.177Z,98636.72
2023-04-12T11:06:55.428Z,98615.16
2023-04-12T11:09:25.602Z,98669.22
2023-04-12T11:12:08.170Z,98665.03
2023-04-12T11:14:44.635Z,98679.16
2023-04-12T11:17:11.665Z,98677.84
2023-04-12T11:19:46.274Z,98703.81
2023-04-12T11:22:15.133Z,98716.41
2023-04-12T11:24:49.818Z,98724.41
2023-04-12T11:27:17.196Z,98724.81
2023-04-12T11:29:44.850Z,98732.00
2023-04-12T11:32:14.228Z,98755.13
2023-04-12T11:34:42.562Z,98729.03
2023-04-12T11:37:10.630Z,98775.91
2023-04-12T11:39:43.341Z,98760.41
2023-04-12T11:42:16.007Z,98744.75
2023-04-12T11:44:56.341Z,98755.88
2023-04-12T11:47:25.816Z,98790.16
2023-04-12T11:49:53.647Z,98810.19
2023-04-12T11:52:21.807Z,98850.78
2023-04-12T11:54:50.719Z,98830.03
2023-04-12T11:57:18.982Z,98835.47
2023-04-12T11:59:47.528Z,98856.50
2023-04-12T12:02:23.399Z,98876.28
2023-04-12T12:04:51.876Z,98873.25
2023-04-12T12:07:20.015Z,98894.56
2023-04-12T12:09:47.332Z,98906.66
2023-04-12T12:12:14.895Z,98897.75
2023-04-12T12:14:44.473Z,98881.66
2023-04-12T12:17:13.786Z,98931.13
2023-04-12T12:19:42.721Z,98945.13
2023-04-12T12:22:15.758Z,98954.63
2023-04-12T12:24:58.042Z,98982.63
2023-04-12T12:27:48.575Z,98986.81
2023-04-12T12:30:20.455Z,98994.44
2023-04-12T12:32:50.793Z,98995.25
2023-04-12T12:35:19.432Z,98978.75
2023-04-12T12:37:55.961Z,98988.72
2023-04-12T12:40:32.493Z,99008.06
2023-04-12T12:43:00.454Z,99028.22
2023-04-12T12:45:29.471Z,99016.50
2023-04-12T12:47:59.450Z,99035.50
2023-04-12T12:50:31.442Z,99036.22
2023-04-12T12:53:02.519Z,99058.47
2023-04-12T12:55:31.091Z,99048.78
2023-04-12T12:58:06.795Z,99064.34
2023-04-12T13:00:34.686Z,99088.31
2023-04-12T13:03:01.902Z,99075.94
2023-04-12T13:05:29.303Z,99076.97
2023-04-12T13:07:56.222Z,99111.56
2023-04-12T13:10:23.862Z,99116.38
2023-04-12T13:12:50.835Z,99117.06
2023-04-12T13:15:23.283Z,99129.25
2023-04-12T13:17:55.075Z,99127.97
2023-04-12T13:20:23.287Z,99159.16
2023-04-12T13:22:52.251Z,99165.91
2023-04-12T13:25:22.044Z,99174.63
2023-04-12T13:27:49.295Z,99177.97
2023-04-12T13:30:16.484Z,99168.34
2023-04-12T13:32:44.903Z,99182.38
2023-04-12T13:35:12.042Z,99195.47
2023-04-12T13:37:38.880Z,99200.78
2023-04-12T13:40:07.079Z,99195.25
2023-04-12T13:42:33.902Z,99191.84
2023-04-12T13:45:01.567Z,99202.06
2023-04-12T13:47:28.480Z,99209.97
2023-04-12T13:49:55.402Z,99221.00
2023-04-12T13:52:22.542Z,99243.75
2023-04-12T13:54:49.339Z,99249.34
2023-04-12T13:57:16.427Z,99241.88
2023-04-12T13:59:43.165Z,99272.53
2023-04-12T14:02:10.149Z,99232.34
2023-04-12T14:04:37.068Z,99279.22
2023-04-12T14:07:03.843Z,99274.34
2023-04-12T14:09:33.180Z,99271.38
2023-04-12T14:12:01.795Z,99295.06
2023-04-12T14:14:28.730Z,99313.69
2023-04-12T14:17:02.046Z,99294.19
2023-04-12T14:19:28.904Z,99299.31
2023-04-12T14:21:55.973Z,99305.81
2023-04-12T14:24:22.931Z,99285.75
2023-04-12T14:26:53.456Z,99290.28
2023-04-12T14:29:20.174Z,99312.78
2023-04-12T14:31:46.975Z,99340.06
2023-04-12T14:34:13.818Z,99363.41
2023-04-12T14:36:40.828Z,99387.56
2023-04-12T14:39:10.397Z,99380.34
2023-04-12T14:41:38.473Z,99386.56
2023-04-12T14:44:05.653Z,99379.25
2023-04-12T14:46:32.560Z,99392.59
2023-04-12T14:49:01.454Z,99397.16
2023-04-12T14:51:29.247Z,99401.06
2023-04-12T14:53:56.704Z,99404.44
2023-04-12T14:56:28.783Z,99405.72
2023-04-12T14:58:56.965Z,99416.72
2023-04-12T15:01:25.359Z,99400.81
2023-04-12T15:03:53.131Z,99398.47
2023-04-12T15:06:22.949Z,99407.91
2023-04-12T15:08:54.657Z,99398.34
2023-04-12T15:11:27.474Z,99409.28
2023-04-12T15:13:55.428Z,99435.34
2023-04-12T15:16:22.964Z,99442.00
2023-04-12T15:18:51.813Z,99417.22
2023-04-12T15:21:19.027Z,99436.50
2023-04-12T15:23:46.430Z,99442.72
2023-04-12T15:26:14.467Z,99454.09
2023-04-12T15:28:41.636Z,99448.38
2023-04-12T15:31:09.550Z,99468.81
2023-04-12T15:33:37.573Z,99491.13
2023-04-12T15:36:05.095Z,99485.47
2023-04-12T15:38:31.852Z,99484.47
2023-04-12T15:41:02.033Z,99468.81
2023-04-12T15:43:28.966Z,99489.38
2023-04-12T15:45:56.326Z,99469.09
2023-04-12T15:48:24.727Z,99480.34
2023-04-12T15:50:52.873Z,99495.06
2023-04-12T15:53:21.489Z,99526.34
2023-04-12T15:55:48.886Z,99511.06
2023-04-12T15:58:15.805Z,99530.09
2023-04-12T16:00:42.685Z,99526.81
2023-04-12T16:03:09.893Z,99529.25
2023-04-12T16:05:36.958Z,99518.34
2023-04-12T16:08:04.350Z,99533.09
2023-04-12T16:10:31.303Z,99536.28
2023-04-12T16:12:58.428Z,99513.66
2023-04-12T16:15:25.461Z,99563.66
2023-04-12T16:17:56.332Z,99573.03
2023-04-12T16:20:23.893Z,99564.09
2023-04-12T16:22:55.683Z,99586.41
2023-04-12T16:25:25.362Z,99589.09
2023-04-12T16:27:52.419Z,99615.59
2023-04-12T16:30:19.414Z,99645.00
2023-04-12T16:32:49.223Z,99638.09
2023-04-12T16:35:16.560Z,99637.47
2023-04-12T16:37:44.596Z,99636.94
2023-04-12T16:40:13.075Z,99642.19
2023-04-12T16:42:44.194Z,99636.31
2023-04-12T16:45:14.591Z,99638.72
2023-04-12T16:47:41.873Z,99637.09
2023-04-12T16:50:09.560Z,99647.88
2023-04-12T16:52:36.974Z,99652.16
2023-04-12T16:55:04.244Z,99654.16
2023-04-12T16:57:31.377Z,99669.44
2023-04-12T16:59:58.456Z,99664.31
2023-04-12T17:02:26.272Z,99672.28
2023-04-12T17:04:53.216Z,99670.13
2023-04-12T17:07:20.053Z,99683.13
2023-04-12T17:09:46.806Z,99694.72
2023-04-12T17:12:13.595Z,99688.16
2023-04-12T17:14:40.357Z,99683.81
2023-04-12T17:17:07.383Z,99710.63
2023-04-12T17:19:34.167Z,99719.75
2023-04-12T17:22:01.245Z,99721.34
2023-04-12T17:24:29.355Z,99727.16
2023-04-12T17:26:57.923Z,99723.94
2023-04-12T17:29:24.809Z,99725.44
2023-04-12T17:31:54.186Z,99740.19
2023-04-12T17:34:22.004Z,99743.00
2023-04-12T17:36:49.259Z,99757.06
2023-04-12T17:39:16.838Z,99757.59
2023-04-12T17:41:43.696Z,99773.66
2023-04-12T17:44:10.601Z,99770.16
2023-04-12T17:46:37.537Z,99785.56
2023-04-12T17:49:05.994Z,99773.72
2023-04-12T17:51:33.403Z,99786.69
2023-04-12T17:54:00.923Z,99788.97
2023-04-12T17:56:28.054Z,99795.75
2023-04-12T17:58:55.627Z,99793.13
2023-04-12T18:01:22.781Z,99801.50
2023-04-12T18:03:50.123Z,99794.56
2023-04-12T18:06:18.763Z,99798.06
2023-04-12T18:08:47.071Z,99816.72
2023-04-12T18:11:14.704Z,99818.19
2023-04-12T18:13:42.085Z,99818.38
2023-04-12T18:16:09.140Z,99813.16
2023-04-12T18:18:36.238Z,99815.84
2023-04-12T18:21:04.836Z,99815.97
2023-04-12T18:23:31.817Z,99813.16
2023-04-12T18:25:58.677Z,99815.38
2023-04-12T18:28:25.548Z,99828.44
2023-04-12T18:30:52.292Z,99826.69
2023-04-12T18:33:19.061Z,99835.34
2023-04-12T18:35:45.875Z,99832.69
2023-04-12T18:38:12.591Z,99840.22
2023-04-12T18:40:39.457Z,99858.88
2023-04-12T18:43:06.418Z,99865.00
2023-04-12T18:45:33.217Z,99870.63
2023-04-12T18:48:00.517Z,99849.22
2023-04-12T18:50:27.586Z,99865.22
2023-04-12T18:52:54.420Z,99868.22
2023-04-12T18:55:21.257Z,99898.63
2023-04-12T18:57:49.209Z,99898.47
2023-04-12T19:00:16.793Z,99903.03
2023-04-12T19:02:43.857Z,99920.41
2023-04-12T19:05:11.757Z,99930.56
2023-04-12T19:07:38.567Z,99928.63
2023-04-12T19:10:05.871Z,99939.88
2023-04-12T19:12:33.269Z,99941.28
2023-04-12T19:15:00.183Z,99925.72
2023-04-12T19:17:30.513Z,99952.81
2023-04-12T19:19:57.307Z,99950.69
2023-04-12T19:22:28.019Z,99954.03
2023-04-12T19:24:55.232Z,99954.28
2023-04-12T19:27:23.202Z,99946.44
2023-04-12T19:29:51.788Z,99957.28
2023-04-12T19:32:19.293Z,99965.66
2023-04-12T19:34:47.175Z,99971.19
2023-04-12T19:37:14.263Z,99968.88
2023-04-12T19:39:41.320Z,99971.22
2023-04-12T19:42:08.085Z,99972.59
2023-04-12T19:44:34.972Z,99973.03
2023-04-12T19:47:01.819Z,99979.31
2023-04-12T19:49:28.891Z,99976.03
2023-04-12T19:51:56.357Z,99982.94
2023-04-12T19:54:23.981Z,99990.25
2023-04-12T19:56:50.795Z,99992.94
2023-04-12T19:59:18.001Z,99995.69
2023-04-12T20:01:48.425Z,99999.31
2023-04-12T20:04:20.244Z,99993.44
2023-04-12T20:06:47.567Z,100001.19
2023-04-12T20:09:14.901Z,100011.44
2023-04-12T20:11:42.040Z,100015.78
2023-04-12T20:14:09.394Z,100012.50
2023-04-12T20:16:37.885Z,100020.66
2023-04-12T20:19:05.334Z,100016.78
2023-04-12T20:21:34.275Z,100020.81
2023-04-12T20:24:08.359Z,100027.47
2023-04-12T20:26:36.428Z,100025.09
2023-04-12T20:29:06.991Z,100020.25
2023-04-12T20:31:33.965Z,100030.53
2023-04-12T20:34:00.783Z,100021.75
2023-04-12T20:36:29.401Z,100038.94
2023-04-12T20:38:56.335Z,100038.34
2023-04-12T20:41:24.001Z,100040.66
2023-04-12T20:43:50.965Z,100039.72
2023-04-12T20:46:20.795Z,100039.78
2023-04-12T20:48:50.924Z,100041.81
2023-04-12T20:51:21.485Z,100033.28
2023-04-12T20:53:48.385Z,100032.09
2023-04-12T20:56:18.908Z,100039.97
2023-04-12T20:58:49.921Z,100040.94
2023-04-12T21:01:16.781Z,100030.69
2023-04-12T21:03:43.768Z,100035.22
2023-04-12T21:06:11.069Z,100043.00
2023-04-12T21:08:39.146Z,100048.22
2023-04-12T21:11:06.421Z,100051.28
2023-04-12T21:13:34.572Z,100055.66
2023-04-12T21:16:05.777Z,100063.66
2023-04-12T21:18:34.450Z,100056.41
2023-04-12T21:21:01.895Z,100032.00
2023-04-12T21:23:28.651Z,100053.81
2023-04-12T21:25:56.216Z,100051.19
2023-04-12T21:28:23.078Z,100057.41
2023-04-12T21:30:55.049Z,100059.75
2023-04-12T21:33:26.392Z,100063.69
2023-04-12T21:35:56.843Z,100072.44
2023-04-12T21:38:24.375Z,100066.91
2023-04-12T21:40:51.744Z,100065.75
2023-04-12T21:43:18.885Z,100070.78
2023-04-12T21:45:46.191Z,100069.81
2023-04-12T21:48:14.717Z,100074.25
2023-04-12T21:50:42.125Z,100075.47
2023-04-12T21:53:09.177Z,100073.66
2023-04-12T21:55:36.491Z,100079.16
2023-04-12T21:58:03.976Z,100081.16
2023-04-12T22:00:32.270Z,100090.88
2023-04-12T22:02:59.916Z,100086.03
2023-04-12T22:05:27.950Z,100093.66
2023-04-12T22:07:55.449Z,100089.41
2023-04-12T22:10:22.297Z,100081.88
2023-04-12T22:12:50.290Z,100100.56
2023-04-12T22:15:17.404Z,100108.09
2023-04-12T22:17:45.376Z,100112.84
2023-04-12T22:20:13.344Z,100108.09
2023-04-12T22:22:40.774Z,100105.91
2023-04-12T22:25:11.997Z,100091.84
2023-04-12T22:27:39.531Z,100091.84
2023-04-12T22:30:08.824Z,100098.28
2023-04-12T22:32:35.650Z,100097.59
2023-04-12T22:35:08.494Z,100096.22
2023-04-12T22:37:39.169Z,100099.59
2023-04-12T22:40:11.507Z,100113.91
2023-04-12T22:42:46.125Z,100118.78
2023-04-12T22:45:17.021Z,100109.13
2023-04-12T22:47:45.037Z,100109.25
2023-04-12T22:50:13.041Z,100116.31
2023-04-12T22:52:40.488Z,100110.50
2023-04-12T22:55:14.574Z,100109.72
2023-04-12T22:57:42.094Z,100093.78
2023-04-12T23:00:15.737Z,100099.38
2023-04-12T23:02:44.156Z,100106.13
2023-04-12T23:05:12.257Z,100096.31
2023-04-12T23:07:41.278Z,100102.22
2023-04-12T23:10:08.957Z,100109.81
2023-04-12T23:12:37.472Z,100104.44
2023-04-12T23:15:06.550Z,100109.38
2023-04-12T23:17:34.005Z,100105.50
2023-04-12T23:20:02.079Z,100106.84
2023-04-12T23:22:55.209Z,100111.38
2023-04-12T23:25:25.627Z,100106.44
2023-04-12T23:27:52.414Z,100112.88
2023-04-12T23:30:20.286Z,100117.59
2023-04-12T23:32:47.390Z,100125.66
2023-04-12T23:35:14.661Z,100127.66
2023-04-12T23:37:41.843Z,100134.84
2023-04-12T23:40:14.399Z,100131.78
2023-04-12T23:42:43.041Z,100127.69
2023-04-12T23:45:13.345Z,100127.94
2023-04-12T23:47:40.181Z,100133.31
2023-04-12T23:50:07.681Z,100127.59
2023-04-12T23:52:34.508Z,100121.72
2023-04-12T23:55:02.782Z,100118.47
2023-04-12T23:57:29.772Z,100125.53
2023-04-12T23:59:56.862Z,100124.81
